21kousinmaru — JD2168 — position and weather

sailwx.info

Track history (hours):
 
Tides and Currents Weather Stations Pressure Air Temp Water Temp Dewpoint Dewpoint Depression Visibility Wind Speed Wind Dir Waves Ship Positions

21kousinmaru

Last reported at 2017-Feb-23 07:28 UTC. Time now 2017-Feb-23 09:30 UTC.
Position N 34°28' E 135°11'.

Length 68 m; draft 4.8 m.

MMSI: 431501835.

Date/timePositionNaut miles runAvg speedWind from/ knotsBaromVisibWave heightAir tempDewpointWater temp
2017-Feb-23 07:28N 34°28' E 135°11'1212.8
2017-Feb-23 06:33N 34°33' E 135°24'1 0.2
2017-Feb-23 00:29N 34°33' E 135°25'5 5.1
2017-Feb-22 23:33N 34°32' E 135°20'0 0.0
2017-Feb-22 22:32N 34°32' E 135°20'0 0.0
2017-Feb-22 21:33N 34°32' E 135°20'0 0.1
2017-Feb-22 20:33N 34°32' E 135°20'0 0.1
2017-Feb-22 19:33N 34°32' E 135°20'0 0.0
2017-Feb-22 18:33N 34°32' E 135°20'0 0.1
2017-Feb-22 17:33N 34°32' E 135°20'0 0.0
2017-Feb-22 15:28N 34°32' E 135°20'0 0.0
2017-Feb-22 14:19N 34°32' E 135°20'0 0.0
2017-Feb-22 13:22N 34°32' E 135°20'0 0.0
2017-Feb-22 12:29N 34°32' E 135°20'0 0.0
2017-Feb-22 11:30N 34°32' E 135°20'8 8.4
2017-Feb-22 10:31N 34°27' E 135°11'1712.3
2017-Feb-22 09:10N 34°14' E 134°59'813.2
2017-Feb-22 08:33N 34°06' E 135°00'  
2017-Feb-19 18:33N 35°01' E 139°44'1010.5
2017-Feb-19 17:33N 35°11' E 139°46'1212.1
2017-Feb-19 16:33N 35°23' E 139°42'1212.0
2017-Feb-19 15:33N 35°31' E 139°53'2 0.2
2017-Feb-19 05:08N 35°29' E 139°55'0 0.0
2017-Feb-18 20:29N 35°29' E 139°55'0 0.0
2017-Feb-18 09:25N 35°29' E 139°55'0 0.0
2017-Feb-18 08:31N 35°29' E 139°55'0 0.0
2017-Feb-18 07:13N 35°29' E 139°55'0 0.0
2017-Feb-17 23:13N 35°29' E 139°55'0 0.1
2017-Feb-17 22:25N 35°29' E 139°55'910.1
2017-Feb-17 21:33N 35°24' E 139°46'1111.5
2017-Feb-17 20:33N 35°12' E 139°47'1111.3
2017-Feb-17 19:33N 35°02' E 139°40'16 0.3
2017-Feb-15 16:34N 35°18' E 139°44'1111.0
2017-Feb-15 15:33N 35°28' E 139°49'5 0.4
2017-Feb-15 00:31N 35°29' E 139°56'0 0.0
2017-Feb-14 07:33N 35°29' E 139°56'4 1.8
2017-Feb-14 05:32N 35°28' E 139°51'1212.0
2017-Feb-14 04:33N 35°18' E 139°45'  
Track history (hours):
 
Tides and Currents Weather Stations Pressure Air Temp Water Temp Dewpoint Dewpoint Depression Visibility Wind Speed Wind Dir Waves Ship Positions

21kousinmaru

Last reported at 2017-Feb-23 07:28 UTC. Time now 2017-Feb-23 09:30 UTC.
Position N 34°28' E 135°11'.

Length 68 m; draft 4.8 m.

MMSI: 431501835.

Date/timePositionNaut miles runAvg speedWind from/ knotsBaromVisibWave heightAir tempDewpointWater temp
2017-Feb-23 07:28N 34°28' E 135°11'1212.8
2017-Feb-23 06:33N 34°33' E 135°24'1 0.2
2017-Feb-23 00:29N 34°33' E 135°25'5 5.1
2017-Feb-22 23:33N 34°32' E 135°20'0 0.0
2017-Feb-22 22:32N 34°32' E 135°20'0 0.0
2017-Feb-22 21:33N 34°32' E 135°20'0 0.1
2017-Feb-22 20:33N 34°32' E 135°20'0 0.1
2017-Feb-22 19:33N 34°32' E 135°20'0 0.0
2017-Feb-22 18:33N 34°32' E 135°20'0 0.1
2017-Feb-22 17:33N 34°32' E 135°20'0 0.0
2017-Feb-22 15:28N 34°32' E 135°20'0 0.0
2017-Feb-22 14:19N 34°32' E 135°20'0 0.0
2017-Feb-22 13:22N 34°32' E 135°20'0 0.0
2017-Feb-22 12:29N 34°32' E 135°20'0 0.0
2017-Feb-22 11:30N 34°32' E 135°20'8 8.4
2017-Feb-22 10:31N 34°27' E 135°11'1712.3
2017-Feb-22 09:10N 34°14' E 134°59'813.2
2017-Feb-22 08:33N 34°06' E 135°00'  
2017-Feb-19 18:33N 35°01' E 139°44'1010.5
2017-Feb-19 17:33N 35°11' E 139°46'1212.1
2017-Feb-19 16:33N 35°23' E 139°42'1212.0
2017-Feb-19 15:33N 35°31' E 139°53'2 0.2
2017-Feb-19 05:08N 35°29' E 139°55'0 0.0
2017-Feb-18 20:29N 35°29' E 139°55'0 0.0
2017-Feb-18 09:25N 35°29' E 139°55'0 0.0
2017-Feb-18 08:31N 35°29' E 139°55'0 0.0
2017-Feb-18 07:13N 35°29' E 139°55'0 0.0
2017-Feb-17 23:13N 35°29' E 139°55'0 0.1
2017-Feb-17 22:25N 35°29' E 139°55'910.1
2017-Feb-17 21:33N 35°24' E 139°46'1111.5
2017-Feb-17 20:33N 35°12' E 139°47'1111.3
2017-Feb-17 19:33N 35°02' E 139°40'16 0.3
2017-Feb-15 16:34N 35°18' E 139°44'1111.0
2017-Feb-15 15:33N 35°28' E 139°49'5 0.4
2017-Feb-15 00:31N 35°29' E 139°56'0 0.0
2017-Feb-14 07:33N 35°29' E 139°56'4 1.8
2017-Feb-14 05:32N 35°28' E 139°51'1212.0
2017-Feb-14 04:33N 35°18' E 139°45'  

Dump ship's entire track history